Time;durP1;ratioP1;P1;durP2;ratioP2;P2;SDS_P1;SDS_P2;PMS_P1;PMS_P2;Temp;Humidity;BMP_temperature;BMP_pressure;BME280_temperature;BME280_humidity;BME280_pressure;Samples;Min_cycle;Max_cycle;Signal;HPM_P1;HPM_P2
2021/06/30 00:00:41;;;;;;;;;;;;;;;19.43;100.00;98468.72;5025007;28;19947;-71
2021/06/30 00:03:07;;;;;;;;;;;;;;;19.90;100.00;98456.38;5007291;28;19983;-71
2021/06/30 00:05:32;;;;;;;;;;;;;;;20.02;100.00;98455.41;5025115;28;19924;-71
2021/06/30 00:07:58;;;;;;;;;;;;;;;20.58;100.00;98440.53;5007802;28;19917;-71
2021/06/30 00:10:23;;;;;;;;;;;;;;;20.00;100.00;98452.09;5024290;28;19921;-71
2021/06/30 00:12:49;;;;;;;;;;;;;;;20.91;100.00;98441.28;5008687;28;19925;-71
2021/06/30 00:15:17;;;;;;;;;;;;;;;21.25;100.00;98444.53;5025338;28;19925;-71
2021/06/30 00:17:43;;;;;;;;;;;;;;;20.47;100.00;98450.03;5007313;28;19917;-71
2021/06/30 00:20:09;;;;;;;;;;;;;;;20.02;100.00;98444.13;5007173;28;19967;-71
2021/06/30 00:22:34;;;;;;;;;;;;;;;21.55;100.00;98435.84;5007758;28;19924;-71
2021/06/30 00:25:00;;;;;;;;;;;;;;;21.66;100.00;98438.38;5007172;28;20366;-71
2021/06/30 00:27:25;;;;;;;;;;;;;;;21.03;100.00;98445.53;5023473;28;19923;-71
2021/06/30 00:29:51;;;;;;;;;;;;;;;20.95;100.00;98442.72;5024922;28;19973;-72
2021/06/30 00:32:16;;;;;;;;;;;;;;;20.68;100.00;98450.09;5024248;28;19921;-72
2021/06/30 00:34:42;;;;;;;;;;;;;;;21.20;100.00;98447.53;5007560;28;20010;-72
2021/06/30 00:37:07;;;;;;;;;;;;;;;21.45;100.00;98451.53;5024921;28;20066;-72
2021/06/30 00:39:32;;;;;;;;;;;;;;;20.12;100.00;98450.28;5023780;28;19968;-72
2021/06/30 00:41:58;;;;;;;;;;;;;;;20.66;100.00;98443.31;5025162;28;20508;-71
2021/06/30 00:44:24;;;;;;;;;;;;;;;20.55;100.00;98445.97;5024505;28;19935;-71
2021/06/30 00:46:49;;;;;;;;;;;;;;;20.27;100.00;98453.44;5007128;28;19968;-71
2021/06/30 00:49:15;;;;;;;;;;;;;;;19.53;100.00;98445.38;5006540;28;20280;-71
2021/06/30 00:51:40;;;;;;;;;;;;;;;20.01;100.00;98442.47;5025061;28;19924;-71
2021/06/30 00:54:06;;;;;;;;;;;;;;;19.22;100.00;98443.31;5007140;28;19919;-71
2021/06/30 00:56:31;;;;;;;;;;;;;;;20.23;100.00;98445.03;5023609;28;19924;-71
2021/06/30 00:58:57;;;;;;;;;;;;;;;20.18;100.00;98444.53;5007280;28;21120;-71
2021/06/30 01:01:23;;;;;;;;;;;;;;;20.38;100.00;98445.56;5004876;28;20025;-71
2021/06/30 01:03:49;;;;;;;;;;;;;;;20.81;100.00;98434.22;5006929;28;20016;-71
2021/06/30 01:06:15;;;;;;;;;;;;;;;20.25;100.00;98450.13;5006715;28;20326;-71
2021/06/30 01:08:40;;;;;;;;;;;;;;;19.13;100.00;98438.78;5006823;28;19913;-71
2021/06/30 01:11:05;;;;;;;;;;;;;;;19.80;100.00;98438.00;5024687;28;19924;-71
2021/06/30 01:13:31;;;;;;;;;;;;;;;20.66;100.00;98430.25;5024388;28;19967;-71
2021/06/30 01:15:56;;;;;;;;;;;;;;;20.37;100.00;98423.00;4990765;28;19917;-71
2021/06/30 01:18:24;;;;;;;;;;;;;;;20.61;100.00;98427.19;5024408;28;19921;-71
2021/06/30 01:20:50;;;;;;;;;;;;;;;20.08;100.00;98427.97;5007021;28;20358;-71
2021/06/30 01:23:16;;;;;;;;;;;;;;;20.77;100.00;98413.66;5023760;28;19964;-70
2021/06/30 01:25:41;;;;;;;;;;;;;;;19.98;100.00;98420.03;5006899;28;19959;-70
2021/06/30 01:28:07;;;;;;;;;;;;;;;20.74;100.00;98409.53;5006299;28;20302;-70
2021/06/30 01:30:32;;;;;;;;;;;;;;;20.40;100.00;98417.50;5023604;28;19917;-70
2021/06/30 01:32:58;;;;;;;;;;;;;;;20.54;100.00;98418.16;5023362;28;19917;-70
2021/06/30 01:35:23;;;;;;;;;;;;;;;20.38;100.00;98424.63;5006551;28;19952;-70
2021/06/30 01:37:49;;;;;;;;;;;;;;;19.35;100.00;98421.50;5023906;28;19913;-70
2021/06/30 01:40:15;;;;;;;;;;;;;;;19.49;100.00;98421.25;5007817;28;19921;-70
2021/06/30 01:42:44;;;;;;;;;;;;;;;20.16;100.00;98417.72;5005785;28;19935;-71
2021/06/30 01:45:10;;;;;;;;;;;;;;;19.99;100.00;98418.25;5009011;28;19951;-70
2021/06/30 01:47:35;;;;;;;;;;;;;;;20.44;100.00;98403.22;5006563;28;19921;-70
2021/06/30 01:50:00;;;;;;;;;;;;;;;20.86;100.00;98398.00;5024672;28;19917;-70
2021/06/30 01:52:29;;;;;;;;;;;;;;;20.80;100.00;98402.94;5006703;28;19949;-70
2021/06/30 01:54:54;;;;;;;;;;;;;;;20.55;100.00;98409.34;5024040;28;19921;-70
2021/06/30 01:57:20;;;;;;;;;;;;;;;20.18;100.00;98422.81;5007478;28;19991;-70
2021/06/30 01:59:45;;;;;;;;;;;;;;;20.24;100.00;98422.31;5023191;28;20329;-70
2021/06/30 02:02:10;;;;;;;;;;;;;;;20.57;100.00;98410.94;5007083;28;19917;-70
2021/06/30 02:04:36;;;;;;;;;;;;;;;19.76;100.00;98417.47;5023380;28;19928;-70
2021/06/30 02:07:01;;;;;;;;;;;;;;;20.41;100.00;98407.84;4990237;28;20366;-70
2021/06/30 02:09:26;;;;;;;;;;;;;;;19.39;100.00;98415.09;5028010;28;19920;-70
2021/06/30 02:11:52;;;;;;;;;;;;;;;19.01;100.00;98405.81;5027589;28;19924;-70
2021/06/30 02:14:17;;;;;;;;;;;;;;;18.94;100.00;98409.84;5009351;28;20382;-70
2021/06/30 02:16:43;;;;;;;;;;;;;;;19.42;100.00;98410.44;5028256;28;20626;-70
2021/06/30 02:19:11;;;;;;;;;;;;;;;19.18;100.00;98402.75;5008340;28;19925;-71
2021/06/30 02:21:36;;;;;;;;;;;;;;;19.34;100.00;98402.41;5008580;28;19983;-71
2021/06/30 02:24:03;;;;;;;;;;;;;;;18.59;100.00;98405.47;5027158;28;19925;-70
2021/06/30 02:26:29;;;;;;;;;;;;;;;18.94;100.00;98409.84;5027703;28;20007;-70
2021/06/30 02:28:55;;;;;;;;;;;;;;;19.11;100.00;98414.63;5009179;28;20442;-70
2021/06/30 02:31:20;;;;;;;;;;;;;;;18.84;100.00;98419.28;5010248;28;19913;-70
2021/06/30 02:33:46;;;;;;;;;;;;;;;18.62;100.00;98420.06;5027147;28;19921;-70
2021/06/30 02:36:11;;;;;;;;;;;;;;;18.55;100.00;98419.69;5010244;28;19917;-70
2021/06/30 02:38:37;;;;;;;;;;;;;;;19.38;100.00;98406.41;5026845;28;19921;-70
2021/06/30 02:41:02;;;;;;;;;;;;;;;19.22;100.00;98416.38;5009784;28;19971;-70
2021/06/30 02:43:28;;;;;;;;;;;;;;;19.41;100.00;98415.81;5027728;28;19979;-70
2021/06/30 02:45:53;;;;;;;;;;;;;;;19.26;100.00;98417.00;5027053;28;19917;-70
2021/06/30 02:48:19;;;;;;;;;;;;;;;19.65;100.00;98419.09;5027590;28;19996;-70
2021/06/30 02:50:44;;;;;;;;;;;;;;;19.91;100.00;98418.88;5027557;28;19921;-70
2021/06/30 02:53:09;;;;;;;;;;;;;;;18.64;100.00;98429.44;4997394;28;19928;-70
2021/06/30 02:55:35;;;;;;;;;;;;;;;19.09;100.00;98424.34;5010315;28;19921;-70
2021/06/30 02:58:01;;;;;;;;;;;;;;;18.42;100.00;98429.34;5027298;28;19925;-70
2021/06/30 03:00:27;;;;;;;;;;;;;;;18.94;100.00;98420.28;5026547;28;19921;-70
2021/06/30 03:02:52;;;;;;;;;;;;;;;18.44;100.00;98427.47;5008864;28;19921;-70
2021/06/30 03:05:18;;;;;;;;;;;;;;;18.68;100.00;98430.00;5009698;28;19913;-70
2021/06/30 03:07:43;;;;;;;;;;;;;;;19.13;100.00;98430.97;5009271;28;20394;-70
2021/06/30 03:10:09;;;;;;;;;;;;;;;19.11;100.00;98421.59;5008009;28;19921;-70
2021/06/30 03:12:35;;;;;;;;;;;;;;;17.76;100.00;98437.47;4980888;28;19951;-70
2021/06/30 03:15:01;;;;;;;;;;;;;;;17.92;100.00;98435.47;5009344;28;19917;-70
2021/06/30 03:17:26;;;;;;;;;;;;;;;17.97;100.00;98435.16;5009570;28;19917;-70
2021/06/30 03:19:52;;;;;;;;;;;;;;;18.46;100.00;98425.56;5025714;28;19986;-70
2021/06/30 03:22:17;;;;;;;;;;;;;;;18.49;100.00;98420.13;5009616;28;19917;-70
2021/06/30 03:24:43;;;;;;;;;;;;;;;17.96;100.00;98418.69;5002174;28;19924;-70
2021/06/30 03:27:08;;;;;;;;;;;;;;;18.09;100.00;98423.03;5026709;28;20677;-70
2021/06/30 03:29:33;;;;;;;;;;;;;;;18.36;100.00;98426.25;5025849;28;19921;-70
2021/06/30 03:31:59;;;;;;;;;;;;;;;18.12;100.00;98425.41;5027485;28;19917;-69
2021/06/30 03:34:24;;;;;;;;;;;;;;;17.88;100.00;98430.59;5027508;28;20296;-69
2021/06/30 03:36:49;;;;;;;;;;;;;;;17.62;100.00;98428.03;5026315;28;20290;-69
2021/06/30 03:39:15;;;;;;;;;;;;;;;17.64;100.00;98433.16;5027321;28;19917;-70
2021/06/30 03:41:40;;;;;;;;;;;;;;;17.58;100.00;98433.56;5025988;28;20417;-70
2021/06/30 03:44:05;;;;;;;;;;;;;;;17.82;100.00;98437.09;5026727;28;19928;-70
2021/06/30 03:46:31;;;;;;;;;;;;;;;18.24;100.00;98434.13;5008308;28;19909;-70
2021/06/30 03:48:56;;;;;;;;;;;;;;;17.72;100.00;98446.44;5027266;28;19917;-70
2021/06/30 03:51:22;;;;;;;;;;;;;;;17.96;100.00;98449.13;5007961;28;19928;-70
2021/06/30 03:53:47;;;;;;;;;;;;;;;18.06;100.00;98451.91;5027144;28;19917;-70
2021/06/30 03:56:13;;;;;;;;;;;;;;;17.94;100.00;98446.63;5026696;28;19983;-70
2021/06/30 03:58:38;;;;;;;;;;;;;;;18.32;100.00;98450.03;5026137;28;19917;-70
2021/06/30 04:01:03;;;;;;;;;;;;;;;17.75;100.00;98456.66;5025827;28;19935;-70
2021/06/30 04:03:29;;;;;;;;;;;;;;;18.19;100.00;98453.53;5008483;28;19975;-70
2021/06/30 04:05:54;;;;;;;;;;;;;;;18.49;100.00;98459.22;5026711;28;20569;-70
2021/06/30 04:08:20;;;;;;;;;;;;;;;18.17;100.00;98451.97;5008008;28;19921;-70
2021/06/30 04:10:45;;;;;;;;;;;;;;;18.64;100.00;98465.13;5007549;28;19917;-70
2021/06/30 04:13:11;;;;;;;;;;;;;;;18.84;100.00;98471.47;5026618;28;19921;-70
2021/06/30 04:15:37;;;;;;;;;;;;;;;18.79;100.00;98477.03;5025998;28;19917;-70
2021/06/30 04:18:03;;;;;;;;;;;;;;;18.53;100.00;98484.16;4992914;28;19958;-70
2021/06/30 04:20:28;;;;;;;;;;;;;;;18.73;100.00;98478.31;5009439;28;19935;-70
2021/06/30 04:22:54;;;;;;;;;;;;;;;18.70;100.00;98481.16;5026598;28;20374;-70
2021/06/30 04:25:19;;;;;;;;;;;;;;;18.51;100.00;98478.22;5026063;28;19924;-70
2021/06/30 04:27:44;;;;;;;;;;;;;;;18.48;100.00;98481.06;5025857;28;19967;-70
2021/06/30 04:30:10;;;;;;;;;;;;;;;18.62;100.00;98478.25;5026688;28;19924;-70
2021/06/30 04:32:36;;;;;;;;;;;;;;;18.29;100.00;98485.00;5025695;28;20527;-70
2021/06/30 04:35:02;;;;;;;;;;;;;;;19.11;100.00;98472.03;5007509;28;20007;-69
2021/06/30 04:37:27;;;;;;;;;;;;;;;18.50;100.00;98481.78;5025127;28;19981;-69
2021/06/30 04:39:52;;;;;;;;;;;;;;;17.86;100.00;98477.63;5008492;28;19920;-69
2021/06/30 04:42:18;;;;;;;;;;;;;;;18.06;100.00;98475.34;5025316;28;19917;-69
2021/06/30 04:44:44;;;;;;;;;;;;;;;19.09;100.00;98476.53;5006761;28;19917;-69
2021/06/30 04:47:10;;;;;;;;;;;;;;;19.07;100.00;98467.13;5007059;28;19971;-69
2021/06/30 04:49:35;;;;;;;;;;;;;;;19.40;100.00;98466.34;5025328;28;19955;-69
2021/06/30 04:52:00;;;;;;;;;;;;;;;19.39;100.00;98462.94;5025942;28;19920;-69
2021/06/30 04:54:26;;;;;;;;;;;;;;;18.95;100.00;98463.69;4991838;28;19917;-70
2021/06/30 04:56:51;;;;;;;;;;;;;;;19.67;100.00;98467.78;5008361;28;20477;-70
2021/06/30 04:59:17;;;;;;;;;;;;;;;20.26;100.00;98473.53;5023857;28;20087;-70
2021/06/30 05:01:43;;;;;;;;;;;;;;;20.40;100.00;98468.97;5003981;28;19999;-70
2021/06/30 05:04:08;;;;;;;;;;;;;;;20.04;100.00;98466.56;5022521;28;19989;-70
2021/06/30 05:06:34;;;;;;;;;;;;;;;19.79;100.00;98474.69;5022388;28;19924;-70
2021/06/30 05:09:00;;;;;;;;;;;;;;;20.38;100.00;98471.72;5005962;28;19917;-70
2021/06/30 05:11:25;;;;;;;;;;;;;;;20.74;100.00;98469.72;5004561;28;19925;-70
2021/06/30 05:13:51;;;;;;;;;;;;;;;20.27;100.00;98482.22;5023242;28;19917;-70
2021/06/30 05:16:16;;;;;;;;;;;;;;;20.13;100.00;98485.94;5005544;28;19921;-70
2021/06/30 05:18:42;;;;;;;;;;;;;;;19.48;100.00;98486.66;5025056;28;19913;-70
2021/06/30 05:21:07;;;;;;;;;;;;;;;20.33;100.00;98479.09;5007363;28;19917;-70
2021/06/30 05:23:32;;;;;;;;;;;;;;;20.11;100.00;98479.97;4992673;28;20542;-70
2021/06/30 05:25:58;;;;;;;;;;;;;;;20.54;100.00;98473.91;5024782;28;20445;-70
2021/06/30 05:28:24;;;;;;;;;;;;;;;20.46;100.00;98473.72;5007288;28;19921;-70
2021/06/30 05:30:49;;;;;;;;;;;;;;;20.46;100.00;98478.97;5006436;28;19921;-70
2021/06/30 05:33:14;;;;;;;;;;;;;;;20.54;100.00;98473.09;5022865;28;21699;-70
2021/06/30 05:35:40;;;;;;;;;;;;;;;20.64;100.00;98471.41;5006811;28;20409;-70
2021/06/30 05:38:05;;;;;;;;;;;;;;;20.57;100.00;98465.00;5024355;28;20390;-70
2021/06/30 05:40:32;;;;;;;;;;;;;;;19.59;100.00;98464.00;5006387;28;20398;-70
2021/06/30 05:42:57;;;;;;;;;;;;;;;19.69;100.00;98468.53;5008035;28;20016;-70
2021/06/30 05:45:23;;;;;;;;;;;;;;;18.94;100.00;98472.47;5028923;28;20039;-70
2021/06/30 05:47:49;;;;;;;;;;;;;;;19.54;100.00;98458.28;5010993;28;19917;-70
2021/06/30 05:50:15;;;;;;;;;;;;;;;19.95;100.00;98454.22;5011251;28;19921;-69
2021/06/30 05:52:40;;;;;;;;;;;;;;;19.60;100.00;98452.59;5029080;28;19928;-69
2021/06/30 05:55:06;;;;;;;;;;;;;;;20.02;100.00;98460.63;5010664;28;19913;-69
2021/06/30 05:57:32;;;;;;;;;;;;;;;20.23;100.00;98458.09;5011322;28;19914;-69
2021/06/30 05:59:57;;;;;;;;;;;;;;;20.14;100.00;98458.00;5010495;28;20341;-69
2021/06/30 06:02:23;;;;;;;;;;;;;;;20.80;100.00;98456.13;5028105;28;19925;-69
2021/06/30 06:04:48;;;;;;;;;;;;;;;20.46;100.00;98464.09;5010803;28;20341;-71
2021/06/30 06:07:13;;;;;;;;;;;;;;;20.62;100.00;98455.84;5027143;28;20352;-71
2021/06/30 06:09:39;;;;;;;;;;;;;;;20.94;100.00;98461.97;5027918;28;19913;-71
2021/06/30 06:12:05;;;;;;;;;;;;;;;21.06;100.00;98466.19;5009708;28;20004;-71
2021/06/30 06:14:30;;;;;;;;;;;;;;;21.02;100.00;98464.78;5009951;28;19953;-71
2021/06/30 06:16:56;;;;;;;;;;;;;;;20.72;100.00;98457.72;5028342;28;20934;-71
2021/06/30 06:19:22;;;;;;;;;;;;;;;20.30;100.00;98463.69;5027533;28;19917;-71
2021/06/30 06:21:48;;;;;;;;;;;;;;;20.65;100.00;98460.81;5009482;28;19921;-71
2021/06/30 06:24:13;;;;;;;;;;;;;;;20.73;100.00;98454.94;5027601;28;19917;-71
2021/06/30 06:26:39;;;;;;;;;;;;;;;21.46;100.00;98458.44;5028206;28;19913;-71
2021/06/30 06:29:05;;;;;;;;;;;;;;;21.28;100.00;98452.97;5009235;28;19917;-71
2021/06/30 06:31:30;;;;;;;;;;;;;;;21.19;100.00;98458.97;5026183;28;19917;-71
2021/06/30 06:33:56;;;;;;;;;;;;;;;21.35;100.00;98461.13;5026165;28;19924;-71
2021/06/30 06:36:21;;;;;;;;;;;;;;;21.35;100.00;98455.88;5009090;28;19956;-71
2021/06/30 06:38:46;;;;;;;;;;;;;;;21.56;100.00;98440.16;5025694;28;20887;-71
2021/06/30 06:41:12;;;;;;;;;;;;;;;21.71;100.00;98446.69;5026088;28;19960;-71
2021/06/30 06:43:42;;;;;;;;;;;;;;;21.58;100.00;98451.31;5025320;28;19999;-71
2021/06/30 06:46:07;;;;;;;;;;;;;;;21.34;100.00;98463.88;5027151;28;20563;-71
2021/06/30 06:48:33;;;;;;;;;;;;;;;22.39;96.13;98456.47;5027565;28;19913;-71
2021/06/30 06:50:58;;;;;;;;;;;;;;;21.46;99.38;98457.59;5010445;28;19913;-71
2021/06/30 06:53:23;;;;;;;;;;;;;;;21.26;100.00;98460.13;5008852;28;19921;-70
2021/06/30 06:55:51;;;;;;;;;;;;;;;21.75;100.00;98462.13;5026405;28;19917;-71
2021/06/30 06:58:16;;;;;;;;;;;;;;;22.32;95.40;98455.38;5009605;28;19932;-71
2021/06/30 07:00:42;;;;;;;;;;;;;;;22.04;97.31;98457.78;5027725;28;20031;-71
2021/06/30 07:03:07;;;;;;;;;;;;;;;21.53;100.00;98458.75;5027489;28;19924;-71
2021/06/30 07:05:32;;;;;;;;;;;;;;;22.20;97.55;98459.88;5010285;28;19919;-71
2021/06/30 07:07:58;;;;;;;;;;;;;;;22.52;97.28;98456.22;5010061;28;19920;-70
2021/06/30 07:10:23;;;;;;;;;;;;;;;22.36;96.03;98456.75;5028650;28;19921;-70
2021/06/30 07:12:48;;;;;;;;;;;;;;;22.25;93.99;98449.84;5009940;28;19940;-70
2021/06/30 07:15:14;;;;;;;;;;;;;;;20.84;100.00;98454.88;5009883;28;19971;-70
2021/06/30 07:17:39;;;;;;;;;;;;;;;21.85;100.00;98444.63;5028502;28;19928;-70
2021/06/30 07:20:05;;;;;;;;;;;;;;;22.20;100.00;98449.41;5028217;28;20007;-70
2021/06/30 07:22:32;;;;;;;;;;;;;;;22.17;99.84;98433.09;5009176;28;19917;-70
2021/06/30 07:24:57;;;;;;;;;;;;;;;21.49;100.00;98436.41;5028062;28;20669;-71
2021/06/30 07:27:22;;;;;;;;;;;;;;;21.63;100.00;98427.34;5009914;28;19984;-68
2021/06/30 07:29:48;;;;;;;;;;;;;;;21.63;100.00;98422.09;5030702;28;20263;-70
2021/06/30 07:32:13;;;;;;;;;;;;;;;21.90;100.00;98424.09;5030126;28;20004;-70
2021/06/30 07:34:38;;;;;;;;;;;;;;;23.00;100.00;98423.84;5029026;28;20312;-70
2021/06/30 07:37:04;;;;;;;;;;;;;;;23.00;90.29;98421.22;4994516;28;19921;-71
2021/06/30 07:39:30;;;;;;;;;;;;;;;23.23;93.04;98423.50;5028619;28;19948;-71
2021/06/30 07:41:55;;;;;;;;;;;;;;;22.82;94.42;98434.22;5028886;28;20322;-70
2021/06/30 07:44:21;;;;;;;;;;;;;;;22.89;88.41;98427.44;5009232;28;19963;-71
2021/06/30 07:46:46;;;;;;;;;;;;;;;22.83;93.43;98427.16;5009468;28;19921;-71
2021/06/30 07:49:12;;;;;;;;;;;;;;;24.51;84.60;98422.66;5028255;28;19936;-71
2021/06/30 07:51:37;;;;;;;;;;;;;;;24.56;81.60;98428.28;5027271;28;20941;-70
2021/06/30 07:54:02;;;;;;;;;;;;;;;22.73;94.09;98430.63;5009049;28;19924;-71
2021/06/30 07:56:34;;;;;;;;;;;;;;;24.08;85.27;98427.66;5010371;28;19917;-71
2021/06/30 07:59:09;;;;;;;;;;;;;;;23.86;84.88;98430.75;5010516;28;19914;-71
2021/06/30 08:01:35;;;;;;;;;;;;;;;25.61;81.73;98423.84;5008438;28;20267;-71
2021/06/30 08:04:00;;;;;;;;;;;;;;;24.24;82.63;98429.63;5009836;28;19921;-71
2021/06/30 08:06:26;;;;;;;;;;;;;;;22.69;92.83;98433.69;5008610;28;19917;-70
2021/06/30 08:08:52;;;;;;;;;;;;;;;23.55;88.62;98428.38;5008977;28;19928;-70
2021/06/30 08:11:18;;;;;;;;;;;;;;;22.29;88.95;98435.50;5009535;28;20008;-70
2021/06/30 08:13:43;;;;;;;;;;;;;;;25.02;81.84;98435.06;5010024;28;19940;-70
2021/06/30 08:16:09;;;;;;;;;;;;;;;22.42;86.19;98445.72;5026707;28;19952;-70
2021/06/30 08:18:34;;;;;;;;;;;;;;;24.01;83.25;98445.03;5009660;28;19921;-70
2021/06/30 08:20:59;;;;;;;;;;;;;;;22.96;90.17;98438.19;5024761;28;19967;-70
2021/06/30 08:23:25;;;;;;;;;;;;;;;24.46;80.73;98436.25;5008907;28;19921;-70
2021/06/30 08:25:50;;;;;;;;;;;;;;;24.06;86.48;98434.88;5008959;28;20327;-70
2021/06/30 08:28:22;;;;;;;;;;;;;;;23.96;79.95;98436.75;5010213;28;19917;-70
2021/06/30 08:30:48;;;;;;;;;;;;;;;25.36;76.89;98429.03;5026154;28;19927;-71
2021/06/30 08:33:13;;;;;;;;;;;;;;;25.31;76.18;98436.56;5009187;28;19924;-71
2021/06/30 08:35:39;;;;;;;;;;;;;;;26.45;70.10;98427.34;5009058;28;19918;-71
2021/06/30 08:38:04;;;;;;;;;;;;;;;27.04;65.01;98428.00;5009369;28;19971;-71
2021/06/30 08:40:31;;;;;;;;;;;;;;;27.83;64.33;98424.63;5025994;28;19917;-71
2021/06/30 08:42:57;;;;;;;;;;;;;;;27.47;64.38;98431.22;5026236;28;20310;-71
2021/06/30 08:45:22;;;;;;;;;;;;;;;26.07;66.26;98430.47;5026588;28;19917;-70
2021/06/30 08:47:48;;;;;;;;;;;;;;;25.81;74.31;98425.22;5008583;28;19928;-70
2021/06/30 08:50:13;;;;;;;;;;;;;;;26.43;69.89;98424.06;5007972;28;19921;-70
2021/06/30 08:52:39;;;;;;;;;;;;;;;27.01;72.47;98423.06;5009034;28;19964;-70
2021/06/30 08:55:05;;;;;;;;;;;;;;;27.63;68.65;98424.22;5008194;28;19956;-70
2021/06/30 08:57:31;;;;;;;;;;;;;;;25.91;77.65;98432.22;5027035;28;19917;-70
2021/06/30 08:59:56;;;;;;;;;;;;;;;24.50;73.81;98435.00;5008676;28;19924;-70
2021/06/30 09:02:22;;;;;;;;;;;;;;;24.89;77.17;98437.28;5012203;28;20391;-70
2021/06/30 09:04:47;;;;;;;;;;;;;;;26.18;78.88;98429.31;5025102;28;19970;-70
2021/06/30 09:07:13;;;;;;;;;;;;;;;27.76;64.02;98437.72;4992298;28;20374;-71
2021/06/30 09:09:39;;;;;;;;;;;;;;;26.52;67.04;98438.91;5007777;28;20359;-71
2021/06/30 09:12:06;;;;;;;;;;;;;;;28.20;71.62;98444.28;5008480;28;19925;-71
2021/06/30 09:14:36;;;;;;;;;;;;;;;24.91;67.79;98448.50;5008305;28;19921;-71
2021/06/30 09:17:16;;;;;;;;;;;;;;;25.93;60.62;98438.16;5007979;28;19924;-71
2021/06/30 09:19:45;;;;;;;;;;;;;;;27.54;67.76;98439.28;5024478;28;19996;-71
2021/06/30 09:22:10;;;;;;;;;;;;;;;27.72;67.07;98436.41;5026390;28;19943;-71
2021/06/30 09:24:38;;;;;;;;;;;;;;;26.52;68.21;98438.91;5008019;28;20366;-71
2021/06/30 09:27:03;;;;;;;;;;;;;;;25.54;66.85;98446.56;5009543;28;19917;-71
2021/06/30 09:29:28;;;;;;;;;;;;;;;26.44;77.90;98436.28;5009222;28;19924;-71
2021/06/30 09:31:54;;;;;;;;;;;;;;;24.67;69.88;98443.03;5027870;28;19928;-71
2021/06/30 09:34:27;;;;;;;;;;;;;;;26.35;69.29;98437.25;5010459;28;20004;-71
2021/06/30 09:36:54;;;;;;;;;;;;;;;25.74;70.83;98440.06;5009692;28;19948;-71
2021/06/30 09:39:22;;;;;;;;;;;;;;;26.98;69.15;98435.78;5027019;28;20327;-71
2021/06/30 09:41:47;;;;;;;;;;;;;;;25.53;70.18;98442.28;5027026;28;19921;-71
2021/06/30 09:44:19;;;;;;;;;;;;;;;25.94;70.00;98445.09;5008249;28;19944;-69
2021/06/30 09:46:45;;;;;;;;;;;;;;;26.43;62.44;98450.47;5025494;28;19917;-71
2021/06/30 09:49:12;;;;;;;;;;;;;;;28.70;69.32;98443.75;5007521;28;19927;-71
2021/06/30 09:51:38;;;;;;;;;;;;;;;28.17;59.89;98442.81;5023745;28;19927;-71
2021/06/30 09:54:05;;;;;;;;;;;;;;;26.18;69.69;98442.50;5024780;28;19913;-71
2021/06/30 09:56:39;;;;;;;;;;;;;;;28.39;69.42;98437.69;5007679;28;19916;-71
2021/06/30 09:59:17;;;;;;;;;;;;;;;28.25;65.46;98432.16;5008141;28;19921;-71
2021/06/30 10:01:43;;;;;;;;;;;;;;;28.44;57.24;98435.34;5024642;28;19917;-71
2021/06/30 10:04:10;;;;;;;;;;;;;;;29.83;57.86;98431.31;5024889;28;19929;-71
2021/06/30 10:06:36;;;;;;;;;;;;;;;26.20;72.60;98440.53;5007623;28;20658;-72
2021/06/30 10:09:03;;;;;;;;;;;;;;;27.01;81.23;98433.63;5007420;28;19952;-72
2021/06/30 10:11:29;;;;;;;;;;;;;;;25.63;64.63;98442.97;5024148;28;20400;-72
2021/06/30 10:13:55;;;;;;;;;;;;;;;25.36;69.79;98450.13;5007473;28;19957;-72
2021/06/30 10:16:21;;;;;;;;;;;;;;;25.40;76.29;98451.44;5006708;28;19942;-72
2021/06/30 10:18:51;;;;;;;;;;;;;;;26.69;67.86;98445.88;5007695;28;19913;-72
2021/06/30 10:21:18;;;;;;;;;;;;;;;25.62;72.34;98442.16;5023330;28;19920;-71
2021/06/30 10:23:43;;;;;;;;;;;;;;;26.55;68.24;98433.34;5024831;28;20301;-71
2021/06/30 10:26:08;;;;;;;;;;;;;;;28.09;56.22;98434.91;5024542;28;19917;-71
2021/06/30 10:28:34;;;;;;;;;;;;;;;27.58;59.18;98440.59;5025714;28;19924;-71
2021/06/30 10:30:59;;;;;;;;;;;;;;;26.55;63.11;98438.63;5011103;28;19952;-71
2021/06/30 10:33:33;;;;;;;;;;;;;;;27.29;63.59;98444.66;5029351;28;19927;-70
2021/06/30 10:35:59;;;;;;;;;;;;;;;27.41;60.99;98449.59;4995055;28;20317;-71
2021/06/30 10:38:43;;;;;;;;;;;;;;;26.49;60.16;98452.44;5028002;28;19924;-70
2021/06/30 10:41:28;;;;;;;;;;;;;;;27.98;58.24;98451.19;5016423;28;19921;-71
2021/06/30 10:44:06;;;;;;;;;;;;;;;28.27;55.36;98450.53;5026782;28;19980;-71
2021/06/30 10:46:32;;;;;;;;;;;;;;;28.13;58.50;98454.75;5027253;28;19962;-71
2021/06/30 10:49:20;;;;;;;;;;;;;;;28.95;52.83;98447.03;5009702;28;20035;-71
2021/06/30 10:51:49;;;;;;;;;;;;;;;27.70;53.57;98449.00;5009238;28;20382;-71
2021/06/30 10:54:33;;;;;;;;;;;;;;;26.25;67.27;98448.81;4994547;28;19925;-71
2021/06/30 10:57:19;;;;;;;;;;;;;;;27.61;56.51;98448.19;5027901;28;19959;-71
2021/06/30 11:00:04;;;;;;;;;;;;;;;27.69;64.83;98437.59;5027817;28;19921;-71
2021/06/30 11:02:31;;;;;;;;;;;;;;;24.15;74.24;98454.19;5028860;28;19925;-71
2021/06/30 11:05:17;;;;;;;;;;;;;;;22.43;85.19;98452.63;5010540;28;20421;-71
2021/06/30 11:07:42;;;;;;;;;;;;;;;22.60;89.50;98452.88;5010812;28;19917;-71
2021/06/30 11:10:20;;;;;;;;;;;;;;;22.54;93.30;98454.28;5028400;28;19917;-71
2021/06/30 11:12:52;;;;;;;;;;;;;;;23.13;89.33;98460.34;5028192;28;19944;-71
2021/06/30 11:15:41;;;;;;;;;;;;;;;23.56;87.04;98466.81;5028413;28;19924;-71
2021/06/30 11:18:12;;;;;;;;;;;;;;;24.30;72.63;98465.06;5019001;28;19917;-71
2021/06/30 11:20:47;;;;;;;;;;;;;;;24.39;68.07;98472.06;5029558;28;20454;-71
2021/06/30 11:23:15;;;;;;;;;;;;;;;24.85;71.97;98459.63;5029397;28;19925;-71
2021/06/30 11:25:41;;;;;;;;;;;;;;;25.19;70.27;98466.81;5028493;28;19917;-71
2021/06/30 11:28:06;;;;;;;;;;;;;;;25.10;69.13;98462.44;4994885;28;19913;-71
2021/06/30 11:30:34;;;;;;;;;;;;;;;25.74;72.62;98460.34;5011454;28;19956;-70
2021/06/30 11:32:59;;;;;;;;;;;;;;;25.71;63.30;98471.22;5012052;28;19914;-71
2021/06/30 11:35:26;;;;;;;;;;;;;;;24.86;67.79;98466.56;5011228;28;20003;-71
2021/06/30 11:38:01;;;;;;;;;;;;;;;26.06;61.31;98459.63;5030397;28;19992;-71
2021/06/30 11:42:52;;;;;;;;;;;;;;;25.26;67.19;98467.84;5010099;28;19963;-71
2021/06/30 11:45:19;;;;;;;;;;;;;;;23.74;70.90;98473.00;5028650;28;20286;-70
2021/06/30 11:47:46;;;;;;;;;;;;;;;24.66;63.91;98478.25;5012486;28;19932;-69
2021/06/30 11:50:17;;;;;;;;;;;;;;;24.93;66.64;98478.16;5012162;28;20286;-70
2021/06/30 11:52:43;;;;;;;;;;;;;;;24.63;61.00;98482.84;5013903;28;20402;-70
2021/06/30 11:55:09;;;;;;;;;;;;;;;24.74;57.68;98476.50;5012380;28;19913;-70
2021/06/30 11:57:34;;;;;;;;;;;;;;;24.51;63.66;98478.75;5030087;28;20329;-70
2021/06/30 12:00:04;;;;;;;;;;;;;;;25.52;63.86;98478.38;5011889;28;19919;-70
2021/06/30 12:02:52;;;;;;;;;;;;;;;24.76;69.28;98485.06;5012274;28;20559;-70
2021/06/30 12:05:17;;;;;;;;;;;;;;;25.66;65.90;98482.22;5030291;28;20290;-70
2021/06/30 12:07:43;;;;;;;;;;;;;;;26.17;66.07;98484.91;5012551;28;19921;-71
2021/06/30 12:10:09;;;;;;;;;;;;;;;26.64;60.72;98479.91;5012687;28;19924;-70
2021/06/30 12:12:35;;;;;;;;;;;;;;;26.77;63.08;98484.66;5012315;28;20008;-70
2021/06/30 12:15:02;;;;;;;;;;;;;;;25.61;71.42;98487.13;5030124;28;20358;-70
2021/06/30 12:17:27;;;;;;;;;;;;;;;26.20;67.65;98492.50;5011413;28;19913;-70
2021/06/30 12:19:55;;;;;;;;;;;;;;;25.78;59.35;98488.06;5012206;28;20035;-70
2021/06/30 12:22:23;;;;;;;;;;;;;;;26.35;66.26;98484.78;5029801;28;19917;-70
2021/06/30 12:24:53;;;;;;;;;;;;;;;26.68;62.89;98481.19;5029994;28;20000;-70
2021/06/30 12:27:19;;;;;;;;;;;;;;;26.94;63.61;98480.22;5028212;28;20007;-70
2021/06/30 12:29:49;;;;;;;;;;;;;;;26.93;64.58;98483.84;5011847;28;20004;-70
2021/06/30 12:32:14;;;;;;;;;;;;;;;27.01;63.05;98478.56;5011124;28;20039;-70
2021/06/30 12:34:41;;;;;;;;;;;;;;;27.16;60.82;98477.88;5011371;28;20345;-70
2021/06/30 12:37:07;;;;;;;;;;;;;;;25.27;68.39;98484.47;5029320;28;20828;-70
2021/06/30 12:39:33;;;;;;;;;;;;;;;27.30;64.66;98479.84;5010824;28;19924;-70